Time;durP1;ratioP1;P1;durP2;ratioP2;P2;SDS_P1;SDS_P2;PMS_P1;PMS_P2;Temp;Humidity;BMP_temperature;BMP_pressure;BME280_temperature;BME280_humidity;BME280_pressure;Samples;Min_cycle;Max_cycle;Signal;HPM_P1;HPM_P2
2023/03/17 00:09:34;;;;;;;2.53;1.27;;;7.10;99.90;;;;;;6185611;23;20072;-86
2023/03/17 00:11:59;;;;;;;4.80;1.50;;;7.10;99.90;;;;;;6086988;23;20013;-89
2023/03/17 00:14:25;;;;;;;4.13;1.67;;;7.20;99.90;;;;;;6159562;23;20017;-89
2023/03/17 00:16:52;;;;;;;3.57;1.23;;;7.20;99.90;;;;;;6110971;23;20394;-85
2023/03/17 00:19:31;;;;;;;4.00;1.15;;;7.20;99.90;;;;;;6135363;23;20040;-89
2023/03/17 00:27:11;;;;;;;4.13;1.38;;;7.20;99.90;;;;;;6189920;23;20073;-93
2023/03/17 00:29:37;;;;;;;4.10;1.60;;;7.20;99.90;;;;;;6139664;23;20108;-91
2023/03/17 00:32:03;;;;;;;3.70;1.70;;;7.20;99.90;;;;;;6138588;23;20021;-95
2023/03/17 00:34:36;;;;;;;3.93;1.73;;;7.20;99.90;;;;;;6139478;23;20021;-92
2023/03/17 00:37:28;;;;;;;4.75;1.63;;;7.30;99.90;;;;;;6174765;23;20001;-94
2023/03/17 00:40:03;;;;;;;4.15;1.58;;;7.30;99.90;;;;;;6201558;23;20028;-91
2023/03/17 00:45:09;;;;;;;3.58;1.27;;;7.30;99.90;;;;;;6209546;23;20024;-92
2023/03/17 00:47:51;;;;;;;3.20;1.40;;;7.30;99.90;;;;;;6186403;23;20062;-93
2023/03/17 00:50:22;;;;;;;5.15;1.45;;;7.20;99.90;;;;;;6234178;23;20468;-93
2023/03/17 00:53:23;;;;;;;2.70;1.20;;;7.30;99.90;;;;;;6233347;23;20098;-92
2023/03/17 00:55:55;;;;;;;3.33;1.25;;;7.30;99.90;;;;;;6257669;23;20453;-92
2023/03/17 00:58:27;;;;;;;3.42;1.40;;;7.30;99.90;;;;;;6208444;23;20016;-94
2023/03/17 01:00:54;;;;;;;3.55;1.30;;;7.30;99.90;;;;;;6256024;23;20019;-94
2023/03/17 01:03:20;;;;;;;5.47;1.67;;;7.30;99.90;;;;;;6209834;23;20016;-93
2023/03/17 01:05:48;;;;;;;3.40;1.25;;;7.30;99.90;;;;;;6229553;23;20028;-91
2023/03/17 01:08:15;;;;;;;3.45;1.17;;;7.40;99.90;;;;;;6179160;23;20017;-94
2023/03/17 01:10:45;;;;;;;4.43;1.55;;;7.40;99.90;;;;;;6168859;23;20032;-92
2023/03/17 01:13:16;;;;;;;4.47;1.33;;;7.40;99.90;;;;;;6167994;23;20020;-91
2023/03/17 01:18:22;;;;;;;3.45;1.40;;;7.40;99.90;;;;;;6229599;23;20029;-93
2023/03/17 01:20:53;;;;;;;3.50;1.30;;;7.40;99.90;;;;;;6176296;23;20021;-93
2023/03/17 01:23:19;;;;;;;4.97;1.55;;;7.30;99.90;;;;;;6171815;23;20327;-93
2023/03/17 01:28:20;;;;;;;6.20;1.60;;;7.40;99.90;;;;;;6224364;23;20070;-94
2023/03/17 01:30:46;;;;;;;3.07;1.10;;;7.40;99.90;;;;;;6174939;23;20064;-92
2023/03/17 01:33:19;;;;;;;4.47;1.52;;;7.40;99.90;;;;;;6230101;23;20000;-91
2023/03/17 01:43:44;;;;;;;3.33;1.38;;;7.40;99.90;;;;;;6225801;23;20030;-94
2023/03/17 01:46:34;;;;;;;4.10;1.52;;;7.40;99.90;;;;;;6204133;23;20024;-93
2023/03/17 01:54:40;;;;;;;3.08;1.35;;;7.40;99.90;;;;;;6226244;23;20019;-93
2023/03/17 01:57:43;;;;;;;4.43;1.50;;;7.40;99.90;;;;;;6232521;23;20082;-92
2023/03/17 02:00:16;;;;;;;3.90;1.38;;;7.30;99.90;;;;;;6177223;23;20016;-90
2023/03/17 02:10:30;;;;;;;3.17;1.00;;;7.30;99.90;;;;;;6199585;23;20031;-91
2023/03/17 02:24:38;;;;;;;3.38;1.20;;;7.20;99.90;;;;;;6202701;23;20445;-95
2023/03/17 02:30:31;;;;;;;3.25;1.40;;;7.20;99.90;;;;;;6226816;23;20025;-91
2023/03/17 02:33:17;;;;;;;3.33;1.10;;;7.20;99.90;;;;;;6173534;23;20061;-92
2023/03/17 02:35:47;;;;;;;3.03;1.20;;;7.20;99.90;;;;;;6078482;23;20013;-96
2023/03/17 02:56:22;;;;;;;4.20;1.42;;;7.20;99.90;;;;;;6206617;23;20021;-91
2023/03/17 02:58:48;;;;;;;3.05;1.42;;;7.10;99.90;;;;;;6182220;23;20016;-93
2023/03/17 03:01:19;;;;;;;3.53;1.40;;;7.10;99.90;;;;;;6207222;23;20520;-92
2023/03/17 03:03:49;;;;;;;4.95;1.60;;;7.10;99.90;;;;;;6208799;23;20000;-93
2023/03/17 03:06:15;;;;;;;3.80;1.38;;;7.20;99.90;;;;;;6176574;23;20115;-94
2023/03/17 03:13:55;;;;;;;2.78;1.10;;;7.20;99.90;;;;;;6198316;23;20021;-91
2023/03/17 03:16:25;;;;;;;3.93;1.63;;;7.20;99.90;;;;;;6172117;23;20016;-95
2023/03/17 03:21:29;;;;;;;3.03;1.50;;;7.20;99.90;;;;;;6227660;23;20024;-92
2023/03/17 03:23:55;;;;;;;3.28;1.40;;;7.20;99.90;;;;;;6180365;23;20017;-92
2023/03/17 03:26:24;;;;;;;5.32;1.40;;;7.20;99.90;;;;;;6157152;23;20386;-92
2023/03/17 03:44:46;;;;;;;3.70;1.45;;;7.10;99.90;;;;;;6227777;23;20021;-91
2023/03/17 03:47:16;;;;;;;3.60;1.30;;;7.10;99.90;;;;;;6178158;23;20024;-91
2023/03/17 03:49:48;;;;;;;3.13;1.25;;;7.10;99.90;;;;;;6184960;23;20048;-91
2023/03/17 03:52:15;;;;;;;6.47;1.40;;;7.10;99.90;;;;;;6179481;23;20020;-91
2023/03/17 03:54:49;;;;;;;2.92;1.25;;;7.10;99.90;;;;;;6182182;23;20004;-91
2023/03/17 03:59:55;;;;;;;3.30;1.20;;;7.10;99.90;;;;;;6223366;23;20024;-93
2023/03/17 04:02:23;;;;;;;4.47;1.45;;;7.20;99.90;;;;;;6174849;23;20021;-92
2023/03/17 04:07:26;;;;;;;4.70;1.52;;;7.20;99.90;;;;;;6176486;23;20037;-92
2023/03/17 04:10:01;;;;;;;2.92;1.40;;;7.20;99.90;;;;;;6173674;23;20025;-93
2023/03/17 04:12:27;;;;;;;5.00;1.45;;;7.20;99.90;;;;;;6170199;23;20064;-91
2023/03/17 04:15:01;;;;;;;3.60;1.33;;;7.20;99.90;;;;;;6173096;23;20021;-92
2023/03/17 04:17:32;;;;;;;5.90;1.40;;;7.20;99.90;;;;;;6142032;23;20055;-93
2023/03/17 04:20:10;;;;;;;3.50;1.10;;;7.20;99.90;;;;;;6168362;23;20001;-93
2023/03/17 04:23:04;;;;;;;3.53;1.10;;;7.20;99.90;;;;;;6144430;23;20073;-91
2023/03/17 04:25:33;;;;;;;3.92;1.30;;;7.20;99.90;;;;;;6170405;23;20027;-91
2023/03/17 04:28:01;;;;;;;4.03;1.48;;;7.20;99.90;;;;;;6168589;23;20017;-91
2023/03/17 04:30:29;;;;;;;3.38;1.45;;;7.20;99.90;;;;;;6121547;23;20021;-94
2023/03/17 04:45:51;;;;;;;3.33;1.35;;;7.20;99.90;;;;;;6226000;23;20028;-93
2023/03/17 04:48:35;;;;;;;3.00;1.23;;;7.20;99.90;;;;;;6203468;23;20019;-95
2023/03/17 04:51:35;;;;;;;4.17;1.60;;;7.20;99.90;;;;;;6147581;23;20017;-95
2023/03/17 04:54:29;;;;;;;3.92;1.50;;;7.10;99.90;;;;;;6170389;23;20028;-94
2023/03/17 04:56:55;;;;;;;3.67;1.20;;;7.10;99.90;;;;;;6199586;23;20442;-94
2023/03/17 04:59:21;;;;;;;5.60;1.40;;;7.10;99.90;;;;;;6175279;23;20070;-94
2023/03/17 05:04:24;;;;;;;3.05;1.17;;;7.00;99.90;;;;;;6225175;23;20021;-94
2023/03/17 05:06:53;;;;;;;3.63;1.40;;;7.00;99.90;;;;;;6176775;23;20017;-92
2023/03/17 05:09:19;;;;;;;4.07;1.50;;;7.00;99.90;;;;;;6177441;23;20013;-90
2023/03/17 05:11:45;;;;;;;4.97;1.20;;;7.00;99.90;;;;;;6175867;23;20050;-91
2023/03/17 05:14:13;;;;;;;3.17;1.15;;;7.00;99.90;;;;;;6149996;23;20013;-91
2023/03/17 05:19:18;;;;;;;3.67;1.20;;;7.00;99.90;;;;;;6202364;23;20022;-91
2023/03/17 05:21:49;;;;;;;3.67;1.45;;;7.00;99.90;;;;;;6150675;23;20025;-91
2023/03/17 05:24:19;;;;;;;3.92;1.60;;;6.90;99.90;;;;;;6175521;23;20085;-92
2023/03/17 05:26:46;;;;;;;3.95;1.55;;;7.00;99.90;;;;;;6139232;23;20014;-95
2023/03/17 05:29:21;;;;;;;3.60;1.20;;;7.00;99.90;;;;;;6092372;23;20061;-91
2023/03/17 05:31:58;;;;;;;4.10;1.83;;;7.00;99.90;;;;;;6116824;23;20018;-91
2023/03/17 05:34:25;;;;;;;5.28;1.45;;;7.00;99.90;;;;;;6117938;23;20018;-93
2023/03/17 05:36:55;;;;;;;4.28;1.35;;;7.00;99.90;;;;;;6118863;23;20064;-91
2023/03/17 05:39:42;;;;;;;4.07;1.70;;;7.00;99.90;;;;;;6093261;23;20014;-92
2023/03/17 05:42:27;;;;;;;5.15;1.65;;;7.00;99.90;;;;;;6094712;23;20022;-91
2023/03/17 05:44:57;;;;;;;4.53;1.40;;;7.00;99.90;;;;;;6119527;23;20085;-95
2023/03/17 05:47:32;;;;;;;3.83;1.55;;;7.00;99.90;;;;;;6114028;23;20014;-93
2023/03/17 05:50:04;;;;;;;4.47;1.73;;;7.00;99.90;;;;;;6116199;23;20399;-95
2023/03/17 05:53:17;;;;;;;3.75;1.38;;;7.00;99.90;;;;;;6090075;23;20009;-95
2023/03/17 06:06:06;;;;;;;3.72;1.25;;;7.20;99.90;;;;;;6228244;23;20078;-91
2023/03/17 06:19:51;;;;;;;3.95;1.40;;;7.30;99.90;;;;;;6202772;23;20021;-92
2023/03/17 06:22:22;;;;;;;4.65;1.65;;;7.30;99.90;;;;;;6148535;23;20068;-94
2023/03/17 06:24:52;;;;;;;3.03;1.15;;;7.30;99.90;;;;;;6152873;23;20041;-94
2023/03/17 06:40:22;;;;;;;3.38;1.33;;;7.50;99.90;;;;;;6200773;23;20035;-90
2023/03/17 06:42:56;;;;;;;4.07;1.40;;;7.60;99.90;;;;;;6151203;23;20378;-92
2023/03/17 06:45:22;;;;;;;3.72;1.20;;;7.70;99.90;;;;;;6125514;23;20100;-90
2023/03/17 06:51:54;;;;;;;2.55;1.30;;;7.70;99.90;;;;;;6200697;23;20095;-90
2023/03/17 06:54:22;;;;;;;4.07;1.42;;;7.70;99.90;;;;;;6140513;23;20148;-96
2023/03/17 06:56:48;;;;;;;2.80;1.40;;;7.70;99.90;;;;;;6142307;23;20017;-95
2023/03/17 06:59:14;;;;;;;3.53;1.50;;;7.70;99.90;;;;;;6141564;23;20027;-89
2023/03/17 07:01:39;;;;;;;4.70;1.93;;;7.70;99.90;;;;;;6117119;23;20455;-96
2023/03/17 07:04:05;;;;;;;4.43;1.67;;;7.70;99.90;;;;;;6092560;23;20439;-95
2023/03/17 07:06:53;;;;;;;4.53;1.53;;;7.70;99.90;;;;;;6144963;23;20021;-92
2023/03/17 07:09:19;;;;;;;6.07;1.80;;;7.70;99.90;;;;;;6171097;23;20069;-94
2023/03/17 07:11:45;;;;;;;4.47;1.63;;;7.70;99.90;;;;;;6145123;23;20012;-91
2023/03/17 07:14:11;;;;;;;5.33;1.70;;;7.90;99.90;;;;;;6119908;23;20471;-91
2023/03/17 07:16:37;;;;;;;3.93;1.60;;;8.10;99.90;;;;;;6142231;23;20260;-94
2023/03/17 07:23:02;;;;;;;4.00;1.30;;;8.10;99.90;;;;;;6189360;23;20486;-90
2023/03/17 07:25:28;;;;;;;4.60;1.52;;;8.10;99.90;;;;;;6135780;23;20017;-89
2023/03/17 07:27:54;;;;;;;3.97;1.43;;;8.10;99.90;;;;;;6087476;23;20083;-90
2023/03/17 07:30:20;;;;;;;3.30;1.40;;;8.00;99.90;;;;;;6111421;23;20025;-90
2023/03/17 07:32:47;;;;;;;4.63;1.73;;;8.00;99.90;;;;;;6135875;23;20028;-88
2023/03/17 07:35:14;;;;;;;4.72;1.80;;;8.00;99.90;;;;;;6111620;23;20477;-89
2023/03/17 07:40:17;;;;;;;6.05;1.70;;;8.00;99.90;;;;;;6224593;23;20025;-94
2023/03/17 07:42:44;;;;;;;3.97;1.88;;;8.10;99.90;;;;;;6151933;23;20021;-93
2023/03/17 07:45:10;;;;;;;;;;;8.20;99.90;;;;;;6149949;23;20048;-91
2023/03/17 07:51:41;;;;;;;5.13;1.60;;;8.50;99.90;;;;;;6222244;23;20067;-88
2023/03/17 07:54:13;;;;;;;4.90;1.63;;;8.90;99.90;;;;;;6193238;23;20020;-90
2023/03/17 07:56:41;;;;;;;3.50;1.77;;;9.10;99.90;;;;;;6173207;23;20017;-89
2023/03/17 07:59:07;;;;;;;3.38;1.70;;;9.20;99.90;;;;;;6149968;23;20017;-88
2023/03/17 08:01:34;;;;;;;4.60;2.13;;;9.20;99.90;;;;;;6179183;23;20153;-92
2023/03/17 08:04:03;;;;;;;3.65;1.48;;;9.10;99.90;;;;;;6151589;23;20048;-93
2023/03/17 08:06:51;;;;;;;4.40;1.58;;;9.10;99.90;;;;;;6175406;23;20023;-92
2023/03/17 08:09:16;;;;;;;4.78;1.70;;;9.10;99.90;;;;;;6141473;23;20013;-91
2023/03/17 08:11:42;;;;;;;3.97;1.50;;;9.10;99.90;;;;;;6166122;23;20092;-92
2023/03/17 08:14:10;;;;;;;2.77;1.33;;;9.00;99.90;;;;;;6166276;23;20020;-96
2023/03/17 08:20:45;;;;;;;;;;;9.10;99.90;;;;;;6217930;23;20067;-94
2023/03/17 08:23:11;;;;;;;6.00;1.30;;;9.10;99.90;;;;;;6166772;23;19916;-94
2023/03/17 08:25:40;;;;;;;5.07;1.58;;;9.10;99.90;;;;;;6166618;23;20402;-92
2023/03/17 08:28:06;;;;;;;4.93;1.85;;;9.20;99.90;;;;;;6141163;23;20020;-92
2023/03/17 08:30:37;;;;;;;3.65;1.67;;;9.20;99.90;;;;;;6144173;23;20024;-93
2023/03/17 08:43:53;;;;;;;4.88;1.65;;;9.30;99.90;;;;;;6217703;23;20402;-95
2023/03/17 08:50:24;;;;;;;;;;;9.30;99.90;;;;;;6219751;23;20409;-89
2023/03/17 08:52:51;;;;;;;4.75;1.20;;;9.20;99.90;;;;;;6165308;23;19938;-91
2023/03/17 08:55:18;;;;;;;3.70;1.60;;;9.20;99.90;;;;;;6166477;23;20131;-93
2023/03/17 08:57:44;;;;;;;5.97;1.52;;;9.20;99.90;;;;;;6165905;23;20013;-93
2023/03/17 09:00:13;;;;;;;4.33;1.87;;;9.30;99.90;;;;;;6165765;23;20043;-92
2023/03/17 09:02:41;;;;;;;4.18;1.67;;;9.30;99.90;;;;;;6190727;23;20016;-89
2023/03/17 09:05:23;;;;;;;4.00;1.48;;;9.40;99.90;;;;;;6166654;23;20063;-92
2023/03/17 09:07:48;;;;;;;4.90;1.70;;;9.50;99.90;;;;;;6141552;23;20048;-92
2023/03/17 09:10:15;;;;;;;4.17;1.70;;;9.60;99.90;;;;;;6141225;23;20024;-89
2023/03/17 09:12:41;;;;;;;;;;;9.60;99.90;;;;;;6190744;23;20016;-88
2023/03/17 09:15:22;;;;;;;3.78;1.63;;;9.70;99.90;;;;;;6165569;23;19916;-89
2023/03/17 09:18:13;;;;;;;4.40;1.50;;;9.80;99.90;;;;;;6141030;23;20035;-88
2023/03/17 09:20:59;;;;;;;5.20;1.80;;;9.90;99.90;;;;;;6189795;23;20102;-93
2023/03/17 09:23:25;;;;;;;3.33;1.50;;;9.90;99.90;;;;;;6190185;23;20353;-96
2023/03/17 09:25:51;;;;;;;3.73;1.63;;;10.00;99.90;;;;;;6141930;23;20020;-91
2023/03/17 09:28:17;;;;;;;4.10;1.80;;;10.10;99.90;;;;;;6190117;23;20044;-94
2023/03/17 09:30:44;;;;;;;4.93;1.77;;;10.20;99.90;;;;;;6189770;23;20508;-94
2023/03/17 09:33:10;;;;;;;5.20;1.80;;;10.20;99.90;;;;;;6166546;23;20032;-88
2023/03/17 09:35:48;;;;;;;;;;;10.30;99.90;;;;;;6216932;23;20048;-86
2023/03/17 09:38:14;;;;;;;4.13;1.70;;;10.40;99.90;;;;;;6164130;23;19922;-88
2023/03/17 09:40:59;;;;;;;4.43;1.70;;;10.40;99.90;;;;;;6141716;23;20017;-88
2023/03/17 09:43:50;;;;;;;4.72;1.80;;;10.40;99.90;;;;;;6167868;23;20021;-94
2023/03/17 09:47:08;;;;;;;5.03;1.80;;;10.50;99.90;;;;;;6188349;23;20040;-87
2023/03/17 09:50:12;;;;;;;3.72;1.42;;;10.60;99.90;;;;;;6165117;23;20279;-93
2023/03/17 09:52:37;;;;;;;4.03;1.33;;;10.70;99.90;;;;;;6137541;23;20017;-84
2023/03/17 09:55:07;;;;;;;8.50;3.57;;;10.80;99.90;;;;;;6136714;23;20024;-93
2023/03/17 09:57:38;;;;;;;5.43;2.25;;;10.90;99.90;;;;;;6162163;23;20021;-96
2023/03/17 10:00:14;;;;;;;4.45;1.92;;;11.00;99.90;;;;;;6139478;23;20041;-92
2023/03/17 10:02:42;;;;;;;3.72;1.60;;;11.00;99.90;;;;;;6163064;23;20089;-89
2023/03/17 10:05:19;;;;;;;3.65;1.60;;;11.10;99.90;;;;;;6161334;23;20338;-88
2023/03/17 10:07:49;;;;;;;;;;;11.20;99.90;;;;;;6161614;23;20017;-88
2023/03/17 10:10:22;;;;;;;5.13;1.90;;;11.20;99.90;;;;;;6160800;23;19912;-89
2023/03/17 10:13:26;;;;;;;4.07;1.50;;;11.30;99.90;;;;;;6136382;23;20021;-86
2023/03/17 10:16:05;;;;;;;4.88;2.03;;;11.40;99.90;;;;;;6128808;23;20093;-87
2023/03/17 10:18:55;;;;;;;3.53;1.70;;;11.50;99.90;;;;;;6161028;23;20017;-84
2023/03/17 10:23:58;;;;;;;4.60;1.83;;;11.60;99.90;;;;;;6206520;23;20028;-90
2023/03/17 10:29:56;;;;;;;4.65;1.95;;;12.10;99.90;;;;;;6066631;23;20026;-94
2023/03/17 10:40:21;;;;;;;5.65;1.92;;;12.60;99.90;;;;;;6217458;22;20021;-87
2023/03/17 10:42:52;;;;;;;4.10;1.80;;;12.80;99.90;;;;;;6165896;23;20054;-87
2023/03/17 10:45:32;;;;;;;4.00;1.98;;;12.90;99.90;;;;;;6190372;23;20025;-85
2023/03/17 10:48:01;;;;;;;5.38;2.22;;;13.10;99.90;;;;;;6190578;23;20060;-85
2023/03/17 10:50:31;;;;;;;4.10;1.73;;;13.30;99.90;;;;;;6190511;23;20450;-85
2023/03/17 10:52:58;;;;;;;5.55;1.88;;;13.50;99.90;;;;;;6190253;23;20012;-86
2023/03/17 10:55:58;;;;;;;6.13;2.20;;;13.60;99.90;;;;;;6190940;23;20027;-90
2023/03/17 10:58:37;;;;;;;5.97;2.08;;;13.80;99.90;;;;;;6186098;23;20016;-88
2023/03/17 11:01:18;;;;;;;5.90;2.13;;;14.00;99.90;;;;;;6165335;23;20012;-88
2023/03/17 11:03:46;;;;;;;5.18;2.10;;;14.20;99.90;;;;;;6165502;23;20017;-84
2023/03/17 11:06:59;;;;;;;4.72;1.98;;;14.30;99.90;;;;;;6165913;23;20036;-91
2023/03/17 11:09:37;;;;;;;5.18;1.83;;;14.50;99.90;;;;;;6181526;23;20016;-88
2023/03/17 11:12:22;;;;;;;3.83;1.60;;;14.70;99.90;;;;;;6140847;23;20339;-89
2023/03/17 11:14:48;;;;;;;3.83;1.50;;;14.80;99.90;;;;;;6165462;23;20488;-94
2023/03/17 11:17:26;;;;;;;4.78;1.70;;;15.00;99.90;;;;;;6190588;23;20434;-88
2023/03/17 11:20:05;;;;;;;3.42;1.60;;;15.10;99.90;;;;;;6190685;23;20301;-85
2023/03/17 11:22:39;;;;;;;4.15;1.60;;;15.30;99.90;;;;;;6165593;23;20012;-86
2023/03/17 11:25:26;;;;;;;4.53;1.88;;;15.30;99.90;;;;;;6166640;23;20020;-92
2023/03/17 11:27:57;;;;;;;5.47;2.15;;;15.50;99.90;;;;;;6191588;23;20478;-88
2023/03/17 11:30:34;;;;;;;5.45;2.22;;;15.50;99.90;;;;;;6192679;23;20027;-86
2023/03/17 11:33:21;;;;;;;7.60;2.03;;;15.70;99.90;;;;;;6190902;23;20024;-91
2023/03/17 11:35:56;;;;;;;4.18;2.15;;;15.70;99.90;;;;;;6217161;23;20099;-87
2023/03/17 11:38:27;;;;;;;5.10;2.08;;;15.80;99.90;;;;;;6219114;23;20047;-85
2023/03/17 11:41:11;;;;;;;5.40;2.00;;;15.90;99.90;;;;;;6190773;23;20063;-86
2023/03/17 11:43:54;;;;;;;4.90;1.60;;;16.00;99.90;;;;;;6216982;23;20021;-88
2023/03/17 11:46:34;;;;;;;4.30;1.70;;;16.10;99.90;;;;;;6190254;23;20020;-96
2023/03/17 11:49:23;;;;;;;5.90;1.92;;;16.10;99.90;;;;;;6190082;23;20016;-88
2023/03/17 11:52:02;;;;;;;4.03;1.73;;;16.20;99.90;;;;;;6189760;23;20095;-89
2023/03/17 11:55:06;;;;;;;4.68;1.95;;;16.20;99.90;;;;;;6216746;23;20095;-90
2023/03/17 11:57:52;;;;;;;5.47;2.20;;;16.20;99.90;;;;;;6166453;23;20022;-92
2023/03/17 12:00:38;;;;;;;5.45;2.33;;;16.30;99.90;;;;;;6216786;23;20465;-87
2023/03/17 12:03:03;;;;;;;4.80;1.65;;;16.30;99.90;;;;;;6216762;23;20059;-88
2023/03/17 12:05:30;;;;;;;3.63;1.73;;;16.40;99.90;;;;;;6215622;23;20096;-88
2023/03/17 12:08:02;;;;;;;4.50;2.20;;;16.50;99.90;;;;;;6216206;23;20024;-88
2023/03/17 12:10:27;;;;;;;4.47;2.00;;;16.60;99.90;;;;;;6164566;23;20021;-88
2023/03/17 12:13:06;;;;;;;4.70;2.47;;;16.70;99.90;;;;;;6164415;23;20021;-89
2023/03/17 12:15:36;;;;;;;5.75;2.53;;;16.70;99.90;;;;;;6188470;23;20024;-87
2023/03/17 12:18:26;;;;;;;6.47;2.30;;;16.80;99.90;;;;;;6186649;23;20655;-87
2023/03/17 12:21:12;;;;;;;5.00;2.15;;;16.80;99.90;;;;;;6187830;23;20052;-90
2023/03/17 12:24:11;;;;;;;5.05;2.15;;;16.80;99.90;;;;;;6164107;23;20028;-89
2023/03/17 12:27:15;;;;;;;5.28;2.10;;;16.80;99.90;;;;;;6164281;23;20016;-86
2023/03/17 12:30:01;;;;;;;6.20;2.40;;;16.70;99.90;;;;;;6129321;23;20039;-85
2023/03/17 12:32:28;;;;;;;5.78;3.00;;;16.70;99.90;;;;;;6164320;23;20099;-84
2023/03/17 12:35:01;;;;;;;5.97;2.30;;;16.60;99.90;;;;;;6189136;23;20016;-84
2023/03/17 12:48:28;;;;;;;4.88;2.45;;;16.50;99.90;;;;;;6209355;22;1989916;-87
2023/03/17 12:51:13;;;;;;;4.38;2.08;;;16.30;99.90;;;;;;6252693;22;20047;-85
2023/03/17 12:53:43;;;;;;;6.43;2.33;;;16.30;99.90;;;;;;6227184;22;20056;-86
2023/03/17 12:56:30;;;;;;;5.95;3.35;;;16.20;99.90;;;;;;6227310;22;20051;-86
2023/03/17 12:59:07;;;;;;;5.78;2.40;;;16.10;99.90;;;;;;6252543;22;20023;-84
2023/03/17 13:01:42;;;;;;;6.28;2.63;;;16.10;99.90;;;;;;6252838;22;20137;-89
2023/03/17 13:04:22;;;;;;;7.55;3.10;;;16.00;99.90;;;;;;6227858;22;20022;-87
2023/03/17 13:07:11;;;;;;;5.25;2.35;;;16.00;99.90;;;;;;6227768;22;20023;-86
2023/03/17 13:09:47;;;;;;;6.47;3.15;;;16.00;99.90;;;;;;6227947;22;20090;-91
2023/03/17 13:12:41;;;;;;;7.25;3.55;;;16.00;99.90;;;;;;6227949;22;20027;-93
2023/03/17 13:15:36;;;;;;;6.13;2.80;;;15.90;99.90;;;;;;6226069;22;20019;-90
2023/03/17 13:18:16;;;;;;;5.82;2.33;;;15.80;99.90;;;;;;6226109;22;20012;-91
2023/03/17 13:21:04;;;;;;;4.75;2.55;;;15.80;99.90;;;;;;6225996;22;20027;-88
2023/03/17 13:23:40;;;;;;;5.20;2.58;;;15.70;99.90;;;;;;6258731;22;20356;-92
2023/03/17 13:26:06;;;;;;;5.95;2.97;;;15.70;99.90;;;;;;6253274;22;20027;-85
2023/03/17 13:28:35;;;;;;;6.22;2.63;;;15.70;99.90;;;;;;6202776;22;20070;-86
2023/03/17 13:31:07;;;;;;;5.05;2.72;;;15.60;99.90;;;;;;6227935;22;20374;-91
2023/03/17 13:33:34;;;;;;;5.75;2.67;;;15.60;99.90;;;;;;6253096;22;20367;-86
2023/03/17 13:36:21;;;;;;;5.97;2.70;;;15.50;99.90;;;;;;6227695;22;20035;-92
2023/03/17 13:39:32;;;;;;;7.05;2.63;;;15.40;99.90;;;;;;6280434;22;20024;-86
2023/03/17 13:42:35;;;;;;;6.05;2.95;;;15.30;99.90;;;;;;6287016;22;20022;-86
2023/03/17 13:45:33;;;;;;;7.05;2.90;;;15.20;99.90;;;;;;6269052;22;20030;-90
2023/03/17 13:48:20;;;;;;;6.50;2.67;;;15.10;99.90;;;;;;6277249;22;20015;-91
2023/03/17 13:50:46;;;;;;;6.20;2.95;;;15.00;99.90;;;;;;6246186;22;20076;-89
2023/03/17 13:53:13;;;;;;;6.85;2.90;;;15.10;99.90;;;;;;6326921;22;20440;-89
2023/03/17 13:56:45;;;;;;;7.85;3.45;;;15.10;99.90;;;;;;6246414;22;20102;-84
2023/03/17 13:59:58;;;;;;;7.50;2.70;;;15.10;99.90;;;;;;6245606;22;20012;-84
2023/03/17 14:02:28;;;;;;;6.05;2.50;;;15.30;99.90;;;;;;6275059;22;20026;-92
2023/03/17 14:05:06;;;;;;;6.00;2.80;;;15.30;99.90;;;;;;6245973;22;20445;-84
2023/03/17 14:07:46;;;;;;;6.45;3.28;;;15.40;99.90;;;;;;6272967;22;20015;-92
2023/03/17 14:10:21;;;;;;;7.40;3.33;;;15.40;99.90;;;;;;6273202;22;20050;-86
2023/03/17 14:13:17;;;;;;;6.40;3.08;;;15.40;99.90;;;;;;6245746;22;20015;-88
2023/03/17 14:15:46;;;;;;;7.10;2.95;;;15.50;99.90;;;;;;6220517;22;20022;-94
2023/03/17 14:18:19;;;;;;;6.65;3.00;;;15.50;99.90;;;;;;6272986;22;20019;-86
2023/03/17 14:20:53;;;;;;;6.47;2.90;;;15.40;99.90;;;;;;6246157;22;20015;-86
2023/03/17 14:23:18;;;;;;;5.43;2.72;;;15.40;99.90;;;;;;6245816;22;20056;-92
2023/03/17 14:25:44;;;;;;;6.45;3.22;;;15.30;99.90;;;;;;6220984;22;20016;-92
2023/03/17 14:28:15;;;;;;;7.03;3.38;;;15.30;99.90;;;;;;6245759;22;20058;-85
2023/03/17 14:31:02;;;;;;;6.57;2.90;;;15.20;99.90;;;;;;6273115;22;20019;-86
2023/03/17 14:33:40;;;;;;;7.00;2.92;;;15.10;99.90;;;;;;6245793;22;20321;-85
2023/03/17 14:36:10;;;;;;;6.85;3.10;;;15.10;99.90;;;;;;6246040;22;20084;-85
2023/03/17 14:38:48;;;;;;;6.25;2.90;;;15.00;99.90;;;;;;6273547;22;20012;-85
2023/03/17 14:41:14;;;;;;;6.30;3.00;;;15.00;99.90;;;;;;6220696;22;20436;-86
2023/03/17 14:43:41;;;;;;;5.32;2.45;;;14.90;99.90;;;;;;6245875;22;20095;-85
2023/03/17 14:46:21;;;;;;;6.57;2.65;;;14.90;99.90;;;;;;6245930;22;20326;-86
2023/03/17 14:48:55;;;;;;;7.38;3.30;;;14.90;99.90;;;;;;6272802;22;20076;-86
2023/03/17 14:51:39;;;;;;;6.53;2.53;;;14.80;99.90;;;;;;6245961;22;20098;-86
2023/03/17 14:54:17;;;;;;;5.72;2.80;;;14.80;99.90;;;;;;6245948;22;20476;-92
2023/03/17 14:56:47;;;;;;;6.55;3.00;;;14.70;99.90;;;;;;6245623;22;20020;-86
2023/03/17 14:59:30;;;;;;;6.07;3.08;;;14.70;99.90;;;;;;6272512;22;20019;-85
2023/03/17 15:02:00;;;;;;;7.45;3.13;;;14.60;99.90;;;;;;6245855;22;20436;-86
2023/03/17 15:04:31;;;;;;;7.53;2.67;;;14.60;99.90;;;;;;6245989;22;20019;-85
2023/03/17 15:07:00;;;;;;;6.40;3.13;;;14.50;99.90;;;;;;6245905;22;20094;-93
2023/03/17 15:09:26;;;;;;;6.10;2.97;;;14.50;99.90;;;;;;6245728;22;20022;-86
2023/03/17 15:12:05;;;;;;;6.57;3.27;;;14.50;99.90;;;;;;6245799;22;20012;-91
2023/03/17 15:14:34;;;;;;;6.20;3.03;;;14.50;99.90;;;;;;6272747;22;20239;-84
2023/03/17 15:17:03;;;;;;;6.72;3.05;;;14.40;99.90;;;;;;6272802;22;20019;-89
2023/03/17 15:20:17;;;;;;;7.22;3.30;;;14.40;99.90;;;;;;6245723;22;20445;-90
2023/03/17 15:22:57;;;;;;;6.00;2.72;;;14.40;99.90;;;;;;6248090;22;20436;-96
2023/03/17 15:25:41;;;;;;;7.10;3.53;;;14.30;99.90;;;;;;6272787;22;20015;-91
2023/03/17 15:28:12;;;;;;;8.05;3.28;;;14.30;99.90;;;;;;6245938;22;20016;-91
2023/03/17 15:30:45;;;;;;;6.70;2.92;;;14.30;99.90;;;;;;6220482;22;20016;-88
2023/03/17 15:33:20;;;;;;;7.55;3.38;;;14.20;99.90;;;;;;6245814;22;20099;-85
2023/03/17 15:35:46;;;;;;;6.68;3.15;;;14.30;99.90;;;;;;6245452;22;20511;-91
2023/03/17 15:38:12;;;;;;;5.93;2.90;;;14.30;99.90;;;;;;6272747;22;20441;-89
2023/03/17 15:40:38;;;;;;;6.68;3.60;;;14.20;99.90;;;;;;6245613;22;20068;-94
2023/03/17 15:43:03;;;;;;;7.97;3.13;;;14.20;99.90;;;;;;6245624;22;20044;-91
2023/03/17 15:45:29;;;;;;;7.60;3.00;;;14.20;99.90;;;;;;6220512;22;20758;-94
2023/03/17 15:47:55;;;;;;;5.75;2.95;;;14.20;99.90;;;;;;6220171;22;20016;-85
2023/03/17 15:50:27;;;;;;;7.18;3.60;;;14.20;99.90;;;;;;6245883;22;20031;-85
2023/03/17 15:52:54;;;;;;;7.43;3.08;;;14.20;99.90;;;;;;6220136;22;20020;-92
2023/03/17 15:55:23;;;;;;;7.50;3.47;;;14.20;99.90;;;;;;6245620;22;20024;-93
2023/03/17 15:57:49;;;;;;;6.93;3.58;;;14.20;99.90;;;;;;6220262;22;20453;-86
2023/03/17 16:00:18;;;;;;;7.38;3.20;;;14.20;99.90;;;;;;6272893;22;20064;-89
2023/03/17 16:02:45;;;;;;;6.43;3.00;;;14.20;99.90;;;;;;6272985;22;20019;-94
2023/03/17 16:05:31;;;;;;;7.28;3.45;;;14.10;99.90;;;;;;6245693;22;20015;-87
2023/03/17 16:07:57;;;;;;;5.97;3.20;;;14.10;99.90;;;;;;6220584;22;20461;-88
2023/03/17 16:10:24;;;;;;;7.40;3.03;;;14.10;99.90;;;;;;6195147;22;20038;-84
2023/03/17 16:12:51;;;;;;;9.32;3.17;;;14.10;99.90;;;;;;6245126;22;20016;-86
2023/03/17 16:15:19;;;;;;;6.32;3.25;;;14.10;99.90;;;;;;6219895;22;20071;-95
2023/03/17 16:17:47;;;;;;;5.85;3.15;;;14.10;99.90;;;;;;6245700;22;20016;-93
2023/03/17 16:20:24;;;;;;;7.03;3.38;;;14.10;99.90;;;;;;6220359;22;20016;-89
2023/03/17 16:22:52;;;;;;;7.50;3.67;;;14.10;99.90;;;;;;6220227;22;20127;-87
2023/03/17 16:25:25;;;;;;;6.97;3.17;;;14.00;99.90;;;;;;6272331;22;20020;-88
2023/03/17 16:27:56;;;;;;;7.47;3.70;;;14.00;99.90;;;;;;6223314;22;20016;-89
2023/03/17 16:30:32;;;;;;;10.30;3.45;;;13.90;99.90;;;;;;6248447;22;20024;-84
2023/03/17 16:33:16;;;;;;;6.70;3.28;;;13.90;99.90;;;;;;6247597;22;20022;-96
2023/03/17 16:35:42;;;;;;;7.03;3.03;;;13.80;99.90;;;;;;6274801;22;20043;-85
2023/03/17 16:38:13;;;;;;;7.78;3.85;;;13.80;99.90;;;;;;6197122;22;20051;-91
2023/03/17 16:40:40;;;;;;;6.40;3.60;;;13.80;99.90;;;;;;6247299;22;20569;-91
2023/03/17 16:43:18;;;;;;;6.72;3.20;;;13.80;99.90;;;;;;6246221;22;20023;-84
2023/03/17 16:46:30;;;;;;;7.93;3.35;;;13.80;99.90;;;;;;6245793;22;20012;-94
2023/03/17 16:52:59;;;;;;;7.25;3.45;;;13.70;99.90;;;;;;6272919;22;20062;-93
2023/03/17 16:55:28;;;;;;;7.20;3.55;;;13.60;99.90;;;;;;6220324;22;20094;-92
2023/03/17 16:57:57;;;;;;;6.82;3.70;;;13.60;99.90;;;;;;6221071;22;20087;-93
2023/03/17 17:00:27;;;;;;;7.05;2.65;;;13.60;99.90;;;;;;6220502;22;20027;-92
2023/03/17 17:02:53;;;;;;;6.07;3.13;;;13.60;99.90;;;;;;6220531;22;20459;-92
2023/03/17 17:05:22;;;;;;;7.22;3.17;;;13.50;99.90;;;;;;6220344;22;20091;-93
2023/03/17 17:07:51;;;;;;;5.18;2.40;;;13.50;99.90;;;;;;6220355;22;20058;-91
2023/03/17 17:10:19;;;;;;;7.15;3.20;;;13.50;99.90;;;;;;6220335;22;20023;-92